Dublin, Ireland

11:14 PM IST on July 23, 2016 (GMT +0100)
Paulie - Swords West | | Change Station

Elev 138 ft 53.46 °N, 6.25 °W | Updated 8 seconds ago

Mostly Cloudy
Mostly Cloudy
62.1 °F
Feels Like 62.1 °F
N
0.0
Wind Variable Wind from South
Gusts 0.0 mph

Today
High -- | Low -- °F
--% Chance of Precip.
Yesterday
High -- | Low -- °F
Precip. -- in
Pressure 30.09 in
Visibility 6.2 miles
Clouds Few 2000 ft
Mostly Cloudy 3500 ft
Dew Point 60 °F
Humidity 92%
Rainfall 0.00 in
Snow Depth Not available.
5:27 AM 9:34 PM
Waning Gibbous, 82% visible
METAR EIDW 232200Z 25009KT 9999 FEW020 BKN035 16/12 Q1019 NOSIG
Pressure 30.09 in
Visibility 6.2 miles
Clouds Few 2000 ft
Mostly Cloudy 3500 ft
Dew Point 60 °F
Humidity 92%
Rainfall 0.00 in
Snow Depth Not available.
5:27 AM 9:34 PM
Waning Gibbous, 82% visible
METAR EIDW 232200Z 25009KT 9999 FEW020 BKN035 16/12 Q1019 NOSIG

10-Day Weather Forecast

×

Almanac

Astronomy

Jul. 23, 2016 Rise Set
Actual Time
Civil Twilight
Nautical Twilight
Astronomical Twilight
Moon
Length of Visible Light
Length of Day
Tomorrow will be .
, % of the Moon is Illuminated

Today's Extremes

Country Highs Country Lows

Community

WunderPhotos

Upload Photos

1,926,940 photos uploaded!

WunderBlog® & News

Nearby

Air Quality

  Air Quality AQ Index Pollutant
Not available.

Snow Depth

Station Depth Elevation

Earthquake Activity

City Distance Mag. Time & Date
Minimum magnitude displayed is 2.5.

Coastal Water Temperatures

Place Temperature

Stations

Nearby Weather Stations

Station Location Temp. Windchill Dew Point Humidity Wind Precip. Elev Updated Type